sensor_id;sensor_type;location;lat;lon;timestamp;P1;durP1;ratioP1;P2;durP2;ratioP2
22837;SDS011;11585;51.450;-0.240;2023-05-07T00:01:32;13.23;;;4.80;;
22837;SDS011;11585;51.450;-0.240;2023-05-07T00:03:58;6.35;;;4.32;;
22837;SDS011;11585;51.450;-0.240;2023-05-07T00:06:23;11.23;;;3.88;;
22837;SDS011;11585;51.450;-0.240;2023-05-07T00:11:39;8.90;;;4.20;;
22837;SDS011;11585;51.450;-0.240;2023-05-07T00:14:05;9.48;;;4.55;;
22837;SDS011;11585;51.450;-0.240;2023-05-07T00:16:31;11.15;;;4.60;;
22837;SDS011;11585;51.450;-0.240;2023-05-07T00:22:19;9.05;;;4.45;;
22837;SDS011;11585;51.450;-0.240;2023-05-07T00:24:44;11.40;;;4.85;;
22837;SDS011;11585;51.450;-0.240;2023-05-07T00:27:10;7.40;;;4.80;;
22837;SDS011;11585;51.450;-0.240;2023-05-07T00:32:04;10.38;;;5.07;;
22837;SDS011;11585;51.450;-0.240;2023-05-07T00:34:30;9.85;;;5.13;;
22837;SDS011;11585;51.450;-0.240;2023-05-07T00:36:55;9.57;;;5.70;;
22837;SDS011;11585;51.450;-0.240;2023-05-07T00:39:23;9.48;;;5.43;;
22837;SDS011;11585;51.450;-0.240;2023-05-07T00:41:49;8.43;;;5.18;;
22837;SDS011;11585;51.450;-0.240;2023-05-07T00:44:16;8.50;;;5.55;;
22837;SDS011;11585;51.450;-0.240;2023-05-07T00:46:43;9.20;;;5.75;;
22837;SDS011;11585;51.450;-0.240;2023-05-07T00:51:39;9.68;;;5.63;;
22837;SDS011;11585;51.450;-0.240;2023-05-07T00:54:05;10.73;;;5.75;;
22837;SDS011;11585;51.450;-0.240;2023-05-07T00:56:31;10.93;;;5.57;;
22837;SDS011;11585;51.450;-0.240;2023-05-07T00:58:58;10.88;;;5.60;;
22837;SDS011;11585;51.450;-0.240;2023-05-07T01:01:23;12.52;;;5.90;;
22837;SDS011;11585;51.450;-0.240;2023-05-07T01:03:49;12.27;;;6.13;;
22837;SDS011;11585;51.450;-0.240;2023-05-07T01:06:15;14.38;;;6.65;;
22837;SDS011;11585;51.450;-0.240;2023-05-07T01:15:25;12.10;;;6.25;;
22837;SDS011;11585;51.450;-0.240;2023-05-07T01:17:52;9.25;;;5.70;;
22837;SDS011;11585;51.450;-0.240;2023-05-07T01:20:18;13.05;;;6.40;;
22837;SDS011;11585;51.450;-0.240;2023-05-07T01:22:44;10.05;;;6.35;;
22837;SDS011;11585;51.450;-0.240;2023-05-07T01:25:10;21.15;;;5.95;;
22837;SDS011;11585;51.450;-0.240;2023-05-07T01:27:36;10.73;;;6.32;;
22837;SDS011;11585;51.450;-0.240;2023-05-07T01:33:13;10.52;;;5.82;;
22837;SDS011;11585;51.450;-0.240;2023-05-07T01:35:42;12.95;;;7.00;;
22837;SDS011;11585;51.450;-0.240;2023-05-07T01:38:12;13.55;;;6.43;;
22837;SDS011;11585;51.450;-0.240;2023-05-07T01:40:38;13.68;;;6.72;;
22837;SDS011;11585;51.450;-0.240;2023-05-07T01:43:04;14.90;;;7.13;;
22837;SDS011;11585;51.450;-0.240;2023-05-07T01:45:30;14.88;;;7.25;;
22837;SDS011;11585;51.450;-0.240;2023-05-07T01:50:48;14.93;;;7.03;;
22837;SDS011;11585;51.450;-0.240;2023-05-07T01:53:15;16.67;;;8.65;;
22837;SDS011;11585;51.450;-0.240;2023-05-07T01:55:41;19.15;;;8.48;;
22837;SDS011;11585;51.450;-0.240;2023-05-07T02:00:54;16.33;;;8.88;;
22837;SDS011;11585;51.450;-0.240;2023-05-07T02:03:19;19.92;;;10.70;;
22837;SDS011;11585;51.450;-0.240;2023-05-07T02:05:45;20.85;;;10.50;;
22837;SDS011;11585;51.450;-0.240;2023-05-07T02:11:14;23.23;;;10.70;;
22837;SDS011;11585;51.450;-0.240;2023-05-07T02:13:40;20.10;;;11.23;;
22837;SDS011;11585;51.450;-0.240;2023-05-07T02:16:06;23.17;;;11.75;;
22837;SDS011;11585;51.450;-0.240;2023-05-07T02:21:17;25.48;;;11.93;;
22837;SDS011;11585;51.450;-0.240;2023-05-07T02:23:43;22.33;;;11.88;;
22837;SDS011;11585;51.450;-0.240;2023-05-07T02:26:09;24.90;;;11.88;;
22837;SDS011;11585;51.450;-0.240;2023-05-07T02:31:39;24.08;;;12.30;;
22837;SDS011;11585;51.450;-0.240;2023-05-07T02:34:04;23.23;;;11.90;;
22837;SDS011;11585;51.450;-0.240;2023-05-07T02:36:30;26.67;;;12.75;;
22837;SDS011;11585;51.450;-0.240;2023-05-07T02:42:18;24.67;;;11.95;;
22837;SDS011;11585;51.450;-0.240;2023-05-07T02:44:43;22.67;;;11.88;;
22837;SDS011;11585;51.450;-0.240;2023-05-07T02:47:09;21.58;;;11.85;;
22837;SDS011;11585;51.450;-0.240;2023-05-07T02:52:20;28.52;;;11.18;;
22837;SDS011;11585;51.450;-0.240;2023-05-07T02:54:46;22.88;;;11.85;;
22837;SDS011;11585;51.450;-0.240;2023-05-07T02:57:11;20.30;;;10.27;;
22837;SDS011;11585;51.450;-0.240;2023-05-07T02:59:37;22.85;;;11.05;;
22837;SDS011;11585;51.450;-0.240;2023-05-07T03:02:03;18.70;;;10.50;;
22837;SDS011;11585;51.450;-0.240;2023-05-07T03:04:28;22.85;;;10.60;;
22837;SDS011;11585;51.450;-0.240;2023-05-07T03:06:54;22.60;;;9.57;;
22837;SDS011;11585;51.450;-0.240;2023-05-07T03:09:19;19.48;;;9.98;;
22837;SDS011;11585;51.450;-0.240;2023-05-07T03:11:45;20.17;;;10.02;;
22837;SDS011;11585;51.450;-0.240;2023-05-07T03:14:11;21.52;;;9.90;;
22837;SDS011;11585;51.450;-0.240;2023-05-07T03:16:37;17.77;;;9.60;;
22837;SDS011;11585;51.450;-0.240;2023-05-07T03:21:50;22.48;;;10.65;;
22837;SDS011;11585;51.450;-0.240;2023-05-07T03:24:16;21.95;;;10.30;;
22837;SDS011;11585;51.450;-0.240;2023-05-07T03:26:41;21.17;;;10.18;;
22837;SDS011;11585;51.450;-0.240;2023-05-07T03:29:08;22.25;;;10.13;;
22837;SDS011;11585;51.450;-0.240;2023-05-07T03:31:34;20.58;;;9.32;;
22837;SDS011;11585;51.450;-0.240;2023-05-07T03:34:00;21.90;;;10.63;;
22837;SDS011;11585;51.450;-0.240;2023-05-07T03:36:25;16.25;;;9.38;;
22837;SDS011;11585;51.450;-0.240;2023-05-07T03:41:24;17.95;;;9.05;;
22837;SDS011;11585;51.450;-0.240;2023-05-07T03:43:50;19.95;;;9.73;;
22837;SDS011;11585;51.450;-0.240;2023-05-07T03:46:16;17.83;;;9.60;;
22837;SDS011;11585;51.450;-0.240;2023-05-07T03:48:42;20.90;;;9.85;;
22837;SDS011;11585;51.450;-0.240;2023-05-07T03:51:07;22.00;;;9.15;;
22837;SDS011;11585;51.450;-0.240;2023-05-07T03:53:33;16.92;;;9.20;;
22837;SDS011;11585;51.450;-0.240;2023-05-07T03:55:59;18.58;;;9.38;;
22837;SDS011;11585;51.450;-0.240;2023-05-07T04:00:53;24.45;;;8.88;;
22837;SDS011;11585;51.450;-0.240;2023-05-07T04:03:19;17.73;;;9.07;;
22837;SDS011;11585;51.450;-0.240;2023-05-07T04:05:44;22.13;;;9.63;;
22837;SDS011;11585;51.450;-0.240;2023-05-07T04:11:32;18.60;;;9.85;;
22837;SDS011;11585;51.450;-0.240;2023-05-07T04:13:58;17.85;;;9.18;;
22837;SDS011;11585;51.450;-0.240;2023-05-07T04:16:23;19.38;;;10.23;;
22837;SDS011;11585;51.450;-0.240;2023-05-07T04:21:33;23.00;;;9.95;;
22837;SDS011;11585;51.450;-0.240;2023-05-07T04:23:59;22.42;;;9.95;;
22837;SDS011;11585;51.450;-0.240;2023-05-07T04:26:25;20.48;;;9.43;;
22837;SDS011;11585;51.450;-0.240;2023-05-07T04:31:37;18.00;;;9.65;;
22837;SDS011;11585;51.450;-0.240;2023-05-07T04:34:03;21.58;;;10.35;;
22837;SDS011;11585;51.450;-0.240;2023-05-07T04:36:28;18.70;;;9.98;;
22837;SDS011;11585;51.450;-0.240;2023-05-07T04:45:25;18.40;;;8.88;;
22837;SDS011;11585;51.450;-0.240;2023-05-07T04:50:39;19.23;;;9.57;;
22837;SDS011;11585;51.450;-0.240;2023-05-07T04:53:05;22.45;;;10.07;;
22837;SDS011;11585;51.450;-0.240;2023-05-07T04:55:31;24.35;;;10.18;;
22837;SDS011;11585;51.450;-0.240;2023-05-07T05:01:02;22.65;;;10.27;;
22837;SDS011;11585;51.450;-0.240;2023-05-07T05:03:28;20.83;;;9.80;;
22837;SDS011;11585;51.450;-0.240;2023-05-07T05:05:56;27.52;;;11.00;;
22837;SDS011;11585;51.450;-0.240;2023-05-07T05:11:27;17.85;;;9.00;;
22837;SDS011;11585;51.450;-0.240;2023-05-07T05:13:52;17.85;;;8.48;;
22837;SDS011;11585;51.450;-0.240;2023-05-07T05:16:18;20.73;;;9.70;;
22837;SDS011;11585;51.450;-0.240;2023-05-07T05:21:29;23.17;;;9.57;;
22837;SDS011;11585;51.450;-0.240;2023-05-07T05:23:56;18.27;;;9.30;;
22837;SDS011;11585;51.450;-0.240;2023-05-07T05:26:21;22.27;;;9.98;;
22837;SDS011;11585;51.450;-0.240;2023-05-07T05:31:33;19.38;;;9.23;;
22837;SDS011;11585;51.450;-0.240;2023-05-07T05:33:58;20.90;;;9.05;;
22837;SDS011;11585;51.450;-0.240;2023-05-07T05:36:24;24.90;;;9.68;;
22837;SDS011;11585;51.450;-0.240;2023-05-07T05:38:53;19.85;;;9.75;;
22837;SDS011;11585;51.450;-0.240;2023-05-07T05:41:18;22.70;;;9.52;;
22837;SDS011;11585;51.450;-0.240;2023-05-07T05:43:44;21.02;;;9.15;;
22837;SDS011;11585;51.450;-0.240;2023-05-07T05:46:10;19.83;;;9.18;;
22837;SDS011;11585;51.450;-0.240;2023-05-07T05:48:37;21.65;;;9.95;;
22837;SDS011;11585;51.450;-0.240;2023-05-07T05:51:03;22.15;;;9.57;;
22837;SDS011;11585;51.450;-0.240;2023-05-07T05:53:29;30.00;;;9.90;;
22837;SDS011;11585;51.450;-0.240;2023-05-07T05:55:54;20.15;;;9.60;;
22837;SDS011;11585;51.450;-0.240;2023-05-07T05:58:20;24.60;;;9.63;;
22837;SDS011;11585;51.450;-0.240;2023-05-07T06:00:46;22.23;;;9.93;;
22837;SDS011;11585;51.450;-0.240;2023-05-07T06:03:13;23.05;;;9.60;;
22837;SDS011;11585;51.450;-0.240;2023-05-07T06:05:38;21.55;;;9.20;;
22837;SDS011;11585;51.450;-0.240;2023-05-07T06:10:49;23.05;;;10.10;;
22837;SDS011;11585;51.450;-0.240;2023-05-07T06:13:15;20.88;;;9.43;;
22837;SDS011;11585;51.450;-0.240;2023-05-07T06:15:40;25.02;;;10.32;;
22837;SDS011;11585;51.450;-0.240;2023-05-07T06:18:06;22.73;;;9.60;;
22837;SDS011;11585;51.450;-0.240;2023-05-07T06:20:32;32.67;;;10.00;;
22837;SDS011;11585;51.450;-0.240;2023-05-07T06:22:57;23.00;;;9.93;;
22837;SDS011;11585;51.450;-0.240;2023-05-07T06:25:23;22.95;;;10.40;;
22837;SDS011;11585;51.450;-0.240;2023-05-07T06:27:48;22.42;;;10.52;;
22837;SDS011;11585;51.450;-0.240;2023-05-07T06:30:14;25.02;;;9.10;;
22837;SDS011;11585;51.450;-0.240;2023-05-07T06:32:40;21.67;;;10.30;;
22837;SDS011;11585;51.450;-0.240;2023-05-07T06:35:06;23.50;;;10.48;;
22837;SDS011;11585;51.450;-0.240;2023-05-07T06:37:31;23.20;;;10.52;;
22837;SDS011;11585;51.450;-0.240;2023-05-07T06:39:58;19.77;;;10.48;;
22837;SDS011;11585;51.450;-0.240;2023-05-07T06:42:24;22.33;;;9.98;;
22837;SDS011;11585;51.450;-0.240;2023-05-07T06:44:49;23.23;;;9.82;;
22837;SDS011;11585;51.450;-0.240;2023-05-07T06:47:15;25.63;;;9.52;;
22837;SDS011;11585;51.450;-0.240;2023-05-07T06:49:43;23.55;;;9.60;;
22837;SDS011;11585;51.450;-0.240;2023-05-07T06:52:09;28.98;;;10.63;;
22837;SDS011;11585;51.450;-0.240;2023-05-07T06:54:35;25.95;;;10.18;;
22837;SDS011;11585;51.450;-0.240;2023-05-07T06:57:00;21.55;;;10.73;;
22837;SDS011;11585;51.450;-0.240;2023-05-07T06:59:27;27.30;;;10.55;;
22837;SDS011;11585;51.450;-0.240;2023-05-07T07:01:56;27.92;;;10.00;;
22837;SDS011;11585;51.450;-0.240;2023-05-07T07:04:21;22.05;;;10.10;;
22837;SDS011;11585;51.450;-0.240;2023-05-07T07:06:48;32.95;;;11.48;;
22837;SDS011;11585;51.450;-0.240;2023-05-07T07:09:14;31.95;;;11.70;;
22837;SDS011;11585;51.450;-0.240;2023-05-07T07:11:40;25.17;;;11.60;;
22837;SDS011;11585;51.450;-0.240;2023-05-07T07:14:05;27.95;;;13.00;;
22837;SDS011;11585;51.450;-0.240;2023-05-07T07:16:31;27.60;;;12.60;;
22837;SDS011;11585;51.450;-0.240;2023-05-07T07:18:59;30.40;;;12.60;;
22837;SDS011;11585;51.450;-0.240;2023-05-07T07:21:24;34.13;;;12.55;;
22837;SDS011;11585;51.450;-0.240;2023-05-07T07:23:50;27.02;;;12.27;;
22837;SDS011;11585;51.450;-0.240;2023-05-07T07:26:16;28.98;;;12.68;;
22837;SDS011;11585;51.450;-0.240;2023-05-07T07:28:45;26.08;;;11.68;;
22837;SDS011;11585;51.450;-0.240;2023-05-07T07:31:11;24.95;;;11.82;;
22837;SDS011;11585;51.450;-0.240;2023-05-07T07:33:37;26.63;;;12.20;;
22837;SDS011;11585;51.450;-0.240;2023-05-07T07:36:03;25.65;;;11.02;;
22837;SDS011;11585;51.450;-0.240;2023-05-07T07:43:25;24.48;;;11.80;;
22837;SDS011;11585;51.450;-0.240;2023-05-07T07:45:50;26.48;;;11.60;;
22837;SDS011;11585;51.450;-0.240;2023-05-07T07:48:18;24.00;;;11.38;;
22837;SDS011;11585;51.450;-0.240;2023-05-07T07:50:44;25.88;;;11.90;;
22837;SDS011;11585;51.450;-0.240;2023-05-07T07:53:10;27.38;;;12.15;;
22837;SDS011;11585;51.450;-0.240;2023-05-07T07:55:39;25.88;;;12.48;;
22837;SDS011;11585;51.450;-0.240;2023-05-07T08:01:29;25.98;;;11.18;;
22837;SDS011;11585;51.450;-0.240;2023-05-07T08:03:57;26.17;;;12.02;;
22837;SDS011;11585;51.450;-0.240;2023-05-07T08:06:28;20.60;;;10.60;;
22837;SDS011;11585;51.450;-0.240;2023-05-07T08:11:24;18.20;;;10.45;;
22837;SDS011;11585;51.450;-0.240;2023-05-07T08:13:50;22.45;;;10.88;;
22837;SDS011;11585;51.450;-0.240;2023-05-07T08:16:16;23.98;;;11.77;;
22837;SDS011;11585;51.450;-0.240;2023-05-07T08:18:41;22.55;;;10.82;;
22837;SDS011;11585;51.450;-0.240;2023-05-07T08:21:07;23.35;;;10.80;;
22837;SDS011;11585;51.450;-0.240;2023-05-07T08:23:33;20.70;;;10.32;;
22837;SDS011;11585;51.450;-0.240;2023-05-07T08:25:59;19.40;;;10.00;;
22837;SDS011;11585;51.450;-0.240;2023-05-07T08:28:27;16.65;;;8.57;;
22837;SDS011;11585;51.450;-0.240;2023-05-07T08:30:53;20.10;;;10.15;;
22837;SDS011;11585;51.450;-0.240;2023-05-07T08:33:18;16.45;;;8.77;;
22837;SDS011;11585;51.450;-0.240;2023-05-07T08:35:44;20.15;;;9.63;;
22837;SDS011;11585;51.450;-0.240;2023-05-07T08:38:12;15.32;;;8.60;;
22837;SDS011;11585;51.450;-0.240;2023-05-07T08:40:38;18.23;;;9.13;;
22837;SDS011;11585;51.450;-0.240;2023-05-07T08:43:05;17.33;;;9.30;;
22837;SDS011;11585;51.450;-0.240;2023-05-07T08:45:33;15.15;;;8.48;;
22837;SDS011;11585;51.450;-0.240;2023-05-07T08:50:46;20.35;;;8.50;;
22837;SDS011;11585;51.450;-0.240;2023-05-07T08:53:12;16.80;;;8.35;;
22837;SDS011;11585;51.450;-0.240;2023-05-07T08:55:38;22.83;;;9.13;;
22837;SDS011;11585;51.450;-0.240;2023-05-07T08:58:05;17.25;;;8.93;;
22837;SDS011;11585;51.450;-0.240;2023-05-07T09:00:32;15.27;;;8.30;;
22837;SDS011;11585;51.450;-0.240;2023-05-07T09:02:57;20.85;;;8.77;;
22837;SDS011;11585;51.450;-0.240;2023-05-07T09:05:23;12.73;;;7.38;;
22837;SDS011;11585;51.450;-0.240;2023-05-07T09:07:50;15.98;;;8.70;;
22837;SDS011;11585;51.450;-0.240;2023-05-07T09:10:15;15.98;;;8.38;;
22837;SDS011;11585;51.450;-0.240;2023-05-07T09:12:41;16.10;;;9.00;;
22837;SDS011;11585;51.450;-0.240;2023-05-07T09:15:13;20.45;;;8.50;;
22837;SDS011;11585;51.450;-0.240;2023-05-07T09:17:39;16.80;;;10.10;;
22837;SDS011;11585;51.450;-0.240;2023-05-07T09:20:07;18.17;;;8.95;;
22837;SDS011;11585;51.450;-0.240;2023-05-07T09:22:36;15.93;;;9.00;;
22837;SDS011;11585;51.450;-0.240;2023-05-07T09:25:02;13.75;;;8.50;;
22837;SDS011;11585;51.450;-0.240;2023-05-07T09:27:29;17.30;;;8.13;;
22837;SDS011;11585;51.450;-0.240;2023-05-07T09:29:58;13.90;;;7.90;;
22837;SDS011;11585;51.450;-0.240;2023-05-07T09:32:24;14.00;;;7.70;;
22837;SDS011;11585;51.450;-0.240;2023-05-07T09:34:52;14.07;;;8.20;;
22837;SDS011;11585;51.450;-0.240;2023-05-07T09:37:17;17.10;;;9.27;;
22837;SDS011;11585;51.450;-0.240;2023-05-07T09:39:46;15.32;;;8.55;;
22837;SDS011;11585;51.450;-0.240;2023-05-07T09:42:15;14.00;;;7.90;;
22837;SDS011;11585;51.450;-0.240;2023-05-07T09:44:41;13.68;;;7.60;;
22837;SDS011;11585;51.450;-0.240;2023-05-07T09:47:08;14.85;;;8.27;;
22837;SDS011;11585;51.450;-0.240;2023-05-07T09:49:39;13.93;;;8.73;;
22837;SDS011;11585;51.450;-0.240;2023-05-07T09:52:07;14.25;;;9.63;;
22837;SDS011;11585;51.450;-0.240;2023-05-07T09:54:35;16.42;;;9.98;;
22837;SDS011;11585;51.450;-0.240;2023-05-07T09:57:03;18.75;;;10.32;;
22837;SDS011;11585;51.450;-0.240;2023-05-07T09:59:31;14.55;;;8.95;;
22837;SDS011;11585;51.450;-0.240;2023-05-07T10:02:00;17.20;;;9.82;;
22837;SDS011;11585;51.450;-0.240;2023-05-07T10:04:41;18.58;;;10.98;;
22837;SDS011;11585;51.450;-0.240;2023-05-07T10:07:07;15.32;;;9.43;;
22837;SDS011;11585;51.450;-0.240;2023-05-07T10:12:43;16.63;;;10.10;;
22837;SDS011;11585;51.450;-0.240;2023-05-07T10:15:13;17.35;;;10.02;;
22837;SDS011;11585;51.450;-0.240;2023-05-07T10:17:41;14.30;;;9.23;;
22837;SDS011;11585;51.450;-0.240;2023-05-07T10:20:07;19.77;;;10.52;;
22837;SDS011;11585;51.450;-0.240;2023-05-07T10:22:38;16.20;;;9.77;;
22837;SDS011;11585;51.450;-0.240;2023-05-07T10:25:09;14.15;;;9.82;;
22837;SDS011;11585;51.450;-0.240;2023-05-07T10:28:00;17.77;;;11.07;;
22837;SDS011;11585;51.450;-0.240;2023-05-07T10:30:44;15.68;;;11.15;;
22837;SDS011;11585;51.450;-0.240;2023-05-07T10:33:26;19.00;;;12.40;;
22837;SDS011;11585;51.450;-0.240;2023-05-07T10:35:55;19.05;;;13.73;;
22837;SDS011;11585;51.450;-0.240;2023-05-07T10:38:25;20.75;;;14.23;;
22837;SDS011;11585;51.450;-0.240;2023-05-07T10:40:53;21.02;;;13.00;;
22837;SDS011;11585;51.450;-0.240;2023-05-07T10:43:18;19.27;;;11.90;;
22837;SDS011;11585;51.450;-0.240;2023-05-07T10:45:53;19.75;;;12.27;;
22837;SDS011;11585;51.450;-0.240;2023-05-07T10:51:29;17.03;;;11.40;;
22837;SDS011;11585;51.450;-0.240;2023-05-07T10:54:31;15.75;;;9.77;;
22837;SDS011;11585;51.450;-0.240;2023-05-07T10:56:50;15.48;;;9.55;;
22837;SDS011;11585;51.450;-0.240;2023-05-07T11:01:57;17.27;;;8.40;;
22837;SDS011;11585;51.450;-0.240;2023-05-07T11:04:32;11.82;;;8.45;;
22837;SDS011;11585;51.450;-0.240;2023-05-07T11:12:16;14.60;;;9.93;;
22837;SDS011;11585;51.450;-0.240;2023-05-07T11:15:02;14.57;;;9.95;;
22837;SDS011;11585;51.450;-0.240;2023-05-07T11:17:32;17.95;;;10.25;;
22837;SDS011;11585;51.450;-0.240;2023-05-07T11:23:20;16.45;;;10.18;;
22837;SDS011;11585;51.450;-0.240;2023-05-07T11:28:30;16.35;;;10.23;;
22837;SDS011;11585;51.450;-0.240;2023-05-07T11:30:57;18.40;;;9.65;;
22837;SDS011;11585;51.450;-0.240;2023-05-07T11:33:23;14.10;;;9.07;;
22837;SDS011;11585;51.450;-0.240;2023-05-07T11:35:53;16.38;;;9.05;;
22837;SDS011;11585;51.450;-0.240;2023-05-07T11:41:42;14.30;;;7.85;;
22837;SDS011;11585;51.450;-0.240;2023-05-07T11:44:09;12.95;;;8.55;;
22837;SDS011;11585;51.450;-0.240;2023-05-07T11:46:34;16.65;;;7.55;;
22837;SDS011;11585;51.450;-0.240;2023-05-07T11:57:56;13.25;;;7.63;;
22837;SDS011;11585;51.450;-0.240;2023-05-07T12:00:22;11.00;;;6.75;;
22837;SDS011;11585;51.450;-0.240;2023-05-07T12:02:47;8.63;;;6.20;;
22837;SDS011;11585;51.450;-0.240;2023-05-07T12:05:13;12.60;;;7.20;;
22837;SDS011;11585;51.450;-0.240;2023-05-07T12:07:39;13.45;;;7.47;;
22837;SDS011;11585;51.450;-0.240;2023-05-07T12:13:30;11.48;;;6.72;;
22837;SDS011;11585;51.450;-0.240;2023-05-07T12:15:56;9.98;;;6.38;;
22837;SDS011;11585;51.450;-0.240;2023-05-07T12:21:07;11.60;;;6.57;;
22837;SDS011;11585;51.450;-0.240;2023-05-07T12:23:34;8.57;;;5.85;;
22837;SDS011;11585;51.450;-0.240;2023-05-07T12:26:01;9.80;;;5.95;;
22837;SDS011;11585;51.450;-0.240;2023-05-07T12:31:49;15.13;;;8.95;;
22837;SDS011;11585;51.450;-0.240;2023-05-07T12:34:15;9.93;;;6.13;;
22837;SDS011;11585;51.450;-0.240;2023-05-07T12:36:41;11.85;;;6.40;;
22837;SDS011;11585;51.450;-0.240;2023-05-07T12:45:51;9.60;;;6.95;;
22837;SDS011;11585;51.450;-0.240;2023-05-07T12:51:11;10.63;;;6.10;;
22837;SDS011;11585;51.450;-0.240;2023-05-07T12:53:41;10.93;;;6.70;;
22837;SDS011;11585;51.450;-0.240;2023-05-07T12:56:07;11.88;;;6.90;;
22837;SDS011;11585;51.450;-0.240;2023-05-07T13:01:22;8.63;;;5.78;;
22837;SDS011;11585;51.450;-0.240;2023-05-07T13:03:55;8.70;;;6.18;;
22837;SDS011;11585;51.450;-0.240;2023-05-07T13:06:22;8.05;;;4.78;;
22837;SDS011;11585;51.450;-0.240;2023-05-07T13:11:34;5.10;;;4.10;;
22837;SDS011;11585;51.450;-0.240;2023-05-07T13:14:00;7.88;;;4.85;;
22837;SDS011;11585;51.450;-0.240;2023-05-07T13:16:25;6.03;;;4.18;;
22837;SDS011;11585;51.450;-0.240;2023-05-07T13:21:37;16.90;;;5.93;;
22837;SDS011;11585;51.450;-0.240;2023-05-07T13:24:03;4.93;;;3.97;;
22837;SDS011;11585;51.450;-0.240;2023-05-07T13:26:29;5.85;;;4.45;;
22837;SDS011;11585;51.450;-0.240;2023-05-07T13:38:26;9.60;;;6.28;;
22837;SDS011;11585;51.450;-0.240;2023-05-07T13:40:52;8.10;;;5.90;;
22837;SDS011;11585;51.450;-0.240;2023-05-07T13:43:17;9.13;;;5.55;;
22837;SDS011;11585;51.450;-0.240;2023-05-07T13:45:43;8.80;;;5.30;;
22837;SDS011;11585;51.450;-0.240;2023-05-07T13:51:31;10.25;;;5.97;;
22837;SDS011;11585;51.450;-0.240;2023-05-07T13:53:57;7.18;;;5.25;;
22837;SDS011;11585;51.450;-0.240;2023-05-07T13:56:23;7.00;;;5.20;;
22837;SDS011;11585;51.450;-0.240;2023-05-07T14:02:10;6.22;;;5.00;;
22837;SDS011;11585;51.450;-0.240;2023-05-07T14:04:37;8.30;;;5.25;;
22837;SDS011;11585;51.450;-0.240;2023-05-07T14:07:02;8.73;;;4.85;;
22837;SDS011;11585;51.450;-0.240;2023-05-07T14:12:50;6.18;;;4.47;;
22837;SDS011;11585;51.450;-0.240;2023-05-07T14:17:48;10.60;;;5.45;;
22837;SDS011;11585;51.450;-0.240;2023-05-07T14:20:13;16.50;;;6.07;;
22837;SDS011;11585;51.450;-0.240;2023-05-07T14:22:39;10.18;;;5.60;;
22837;SDS011;11585;51.450;-0.240;2023-05-07T14:25:05;7.28;;;4.40;;
22837;SDS011;11585;51.450;-0.240;2023-05-07T14:27:31;7.78;;;4.65;;
22837;SDS011;11585;51.450;-0.240;2023-05-07T14:29:57;6.45;;;3.88;;
22837;SDS011;11585;51.450;-0.240;2023-05-07T14:32:23;3.97;;;3.30;;
22837;SDS011;11585;51.450;-0.240;2023-05-07T14:34:48;7.40;;;3.88;;
22837;SDS011;11585;51.450;-0.240;2023-05-07T14:37:15;6.47;;;3.20;;
22837;SDS011;11585;51.450;-0.240;2023-05-07T14:42:27;9.45;;;4.25;;
22837;SDS011;11585;51.450;-0.240;2023-05-07T14:44:53;4.97;;;3.13;;
22837;SDS011;11585;51.450;-0.240;2023-05-07T14:47:18;6.05;;;3.55;;
22837;SDS011;11585;51.450;-0.240;2023-05-07T14:52:15;4.05;;;2.95;;
22837;SDS011;11585;51.450;-0.240;2023-05-07T14:54:40;4.28;;;2.78;;
22837;SDS011;11585;51.450;-0.240;2023-05-07T14:57:07;4.68;;;2.70;;
22837;SDS011;11585;51.450;-0.240;2023-05-07T15:02:56;5.55;;;2.85;;
22837;SDS011;11585;51.450;-0.240;2023-05-07T15:05:31;4.95;;;2.30;;
22837;SDS011;11585;51.450;-0.240;2023-05-07T15:07:58;6.93;;;4.95;;
22837;SDS011;11585;51.450;-0.240;2023-05-07T15:10:23;5.13;;;3.60;;
22837;SDS011;11585;51.450;-0.240;2023-05-07T15:12:49;2.90;;;2.10;;
22837;SDS011;11585;51.450;-0.240;2023-05-07T15:15:15;6.65;;;2.53;;
22837;SDS011;11585;51.450;-0.240;2023-05-07T15:17:40;2.67;;;2.15;;
22837;SDS011;11585;51.450;-0.240;2023-05-07T15:20:08;2.55;;;2.22;;
22837;SDS011;11585;51.450;-0.240;2023-05-07T15:22:34;3.72;;;2.65;;
22837;SDS011;11585;51.450;-0.240;2023-05-07T15:25:03;7.88;;;3.10;;
22837;SDS011;11585;51.450;-0.240;2023-05-07T15:27:30;10.02;;;3.50;;
22837;SDS011;11585;51.450;-0.240;2023-05-07T15:36:08;25.95;;;7.93;;
22837;SDS011;11585;51.450;-0.240;2023-05-07T15:41:55;42.25;;;18.58;;
22837;SDS011;11585;51.450;-0.240;2023-05-07T15:44:21;10.43;;;5.32;;
22837;SDS011;11585;51.450;-0.240;2023-05-07T15:46:46;3.60;;;2.63;;
22837;SDS011;11585;51.450;-0.240;2023-05-07T15:49:14;5.05;;;2.40;;
22837;SDS011;11585;51.450;-0.240;2023-05-07T15:51:39;4.40;;;2.72;;
22837;SDS011;11585;51.450;-0.240;2023-05-07T15:54:05;4.20;;;2.20;;
22837;SDS011;11585;51.450;-0.240;2023-05-07T15:56:31;4.72;;;2.30;;
22837;SDS011;11585;51.450;-0.240;2023-05-07T16:01:27;3.03;;;2.10;;
22837;SDS011;11585;51.450;-0.240;2023-05-07T16:03:53;12.05;;;4.18;;
22837;SDS011;11585;51.450;-0.240;2023-05-07T16:06:19;4.22;;;2.25;;
22837;SDS011;11585;51.450;-0.240;2023-05-07T16:12:06;5.50;;;2.40;;
22837;SDS011;11585;51.450;-0.240;2023-05-07T16:14:32;7.13;;;2.33;;
22837;SDS011;11585;51.450;-0.240;2023-05-07T16:16:58;5.72;;;2.67;;
22837;SDS011;11585;51.450;-0.240;2023-05-07T16:22:08;63.20;;;21.10;;
22837;SDS011;11585;51.450;-0.240;2023-05-07T16:24:37;6.63;;;3.60;;
22837;SDS011;11585;51.450;-0.240;2023-05-07T16:32:52;5.75;;;3.20;;
22837;SDS011;11585;51.450;-0.240;2023-05-07T16:35:18;5.10;;;2.67;;
22837;SDS011;11585;51.450;-0.240;2023-05-07T16:37:43;13.45;;;5.30;;
22837;SDS011;11585;51.450;-0.240;2023-05-07T16:40:09;4.30;;;2.58;;
22837;SDS011;11585;51.450;-0.240;2023-05-07T16:42:36;6.45;;;2.55;;
22837;SDS011;11585;51.450;-0.240;2023-05-07T16:45:02;11.90;;;4.35;;
22837;SDS011;11585;51.450;-0.240;2023-05-07T16:47:28;6.10;;;2.70;;
22837;SDS011;11585;51.450;-0.240;2023-05-07T16:53:16;5.25;;;2.72;;
22837;SDS011;11585;51.450;-0.240;2023-05-07T16:55:42;11.10;;;5.05;;
22837;SDS011;11585;51.450;-0.240;2023-05-07T16:58:09;4.72;;;2.58;;
22837;SDS011;11585;51.450;-0.240;2023-05-07T17:00:35;6.05;;;2.67;;
22837;SDS011;11585;51.450;-0.240;2023-05-07T17:03:02;2.83;;;1.85;;
22837;SDS011;11585;51.450;-0.240;2023-05-07T17:05:28;5.05;;;1.88;;
22837;SDS011;11585;51.450;-0.240;2023-05-07T17:07:54;4.18;;;1.98;;
22837;SDS011;11585;51.450;-0.240;2023-05-07T17:10:21;3.17;;;1.90;;
22837;SDS011;11585;51.450;-0.240;2023-05-07T17:12:47;4.20;;;2.05;;
22837;SDS011;11585;51.450;-0.240;2023-05-07T17:15:13;6.50;;;2.03;;
22837;SDS011;11585;51.450;-0.240;2023-05-07T17:17:38;4.88;;;2.30;;
22837;SDS011;11585;51.450;-0.240;2023-05-07T17:20:06;6.75;;;2.00;;
22837;SDS011;11585;51.450;-0.240;2023-05-07T17:22:32;6.50;;;2.20;;
22837;SDS011;11585;51.450;-0.240;2023-05-07T17:24:58;5.30;;;2.28;;
22837;SDS011;11585;51.450;-0.240;2023-05-07T17:27:25;3.10;;;2.17;;
22837;SDS011;11585;51.450;-0.240;2023-05-07T17:32:36;5.03;;;2.38;;
22837;SDS011;11585;51.450;-0.240;2023-05-07T17:35:02;2.80;;;1.92;;
22837;SDS011;11585;51.450;-0.240;2023-05-07T17:37:27;2.90;;;1.95;;
22837;SDS011;11585;51.450;-0.240;2023-05-07T17:39:54;3.35;;;2.17;;
22837;SDS011;11585;51.450;-0.240;2023-05-07T17:42:20;6.43;;;2.85;;
22837;SDS011;11585;51.450;-0.240;2023-05-07T17:44:45;6.13;;;2.67;;
22837;SDS011;11585;51.450;-0.240;2023-05-07T17:47:11;5.00;;;2.58;;
22837;SDS011;11585;51.450;-0.240;2023-05-07T17:49:39;4.20;;;2.40;;
22837;SDS011;11585;51.450;-0.240;2023-05-07T17:52:05;4.75;;;2.75;;
22837;SDS011;11585;51.450;-0.240;2023-05-07T17:54:32;4.80;;;2.40;;